sensor_id;sensor_type;location;lat;lon;timestamp;temperature;humidity
70051;SHT30;57391;51.306;22.680;2023-08-08T00:01:23;15.01;79.12
70051;SHT30;57391;51.306;22.680;2023-08-08T00:03:51;15.02;79.12
70051;SHT30;57391;51.306;22.680;2023-08-08T00:06:18;15.02;79.17
70051;SHT30;57391;51.306;22.680;2023-08-08T00:08:45;15.03;79.22
70051;SHT30;57391;51.306;22.680;2023-08-08T00:11:12;15.03;79.30
70051;SHT30;57391;51.306;22.680;2023-08-08T00:13:39;15.04;79.30
70051;SHT30;57391;51.306;22.680;2023-08-08T00:16:06;15.04;79.29
70051;SHT30;57391;51.306;22.680;2023-08-08T00:18:34;15.06;79.34
70051;SHT30;57391;51.306;22.680;2023-08-08T00:21:01;15.05;79.39
70051;SHT30;57391;51.306;22.680;2023-08-08T00:23:28;15.04;79.49
70051;SHT30;57391;51.306;22.680;2023-08-08T00:25:55;15.03;79.54
70051;SHT30;57391;51.306;22.680;2023-08-08T00:28:22;15.04;79.58
70051;SHT30;57391;51.306;22.680;2023-08-08T00:30:49;15.02;79.67
70051;SHT30;57391;51.306;22.680;2023-08-08T00:33:16;15.01;79.71
70051;SHT30;57391;51.306;22.680;2023-08-08T00:35:43;15.00;79.78
70051;SHT30;57391;51.306;22.680;2023-08-08T00:38:11;14.99;79.83
70051;SHT30;57391;51.306;22.680;2023-08-08T00:40:38;14.99;80.07
70051;SHT30;57391;51.306;22.680;2023-08-08T00:43:05;14.99;80.12
70051;SHT30;57391;51.306;22.680;2023-08-08T00:45:32;14.96;80.21
70051;SHT30;57391;51.306;22.680;2023-08-08T00:47:59;14.95;80.24
70051;SHT30;57391;51.306;22.680;2023-08-08T00:50:26;14.94;80.31
70051;SHT30;57391;51.306;22.680;2023-08-08T00:52:53;14.92;80.38
70051;SHT30;57391;51.306;22.680;2023-08-08T00:55:21;14.91;80.53
70051;SHT30;57391;51.306;22.680;2023-08-08T00:57:48;14.90;80.55
70051;SHT30;57391;51.306;22.680;2023-08-08T01:00:16;14.90;80.56
70051;SHT30;57391;51.306;22.680;2023-08-08T01:02:47;14.89;80.61
70051;SHT30;57391;51.306;22.680;2023-08-08T01:05:17;14.90;80.71
70051;SHT30;57391;51.306;22.680;2023-08-08T01:07:54;14.91;80.81
70051;SHT30;57391;51.306;22.680;2023-08-08T01:10:35;14.91;80.83
70051;SHT30;57391;51.306;22.680;2023-08-08T01:13:08;14.93;80.80
70051;SHT30;57391;51.306;22.680;2023-08-08T01:15:41;14.92;80.84
70051;SHT30;57391;51.306;22.680;2023-08-08T01:18:15;14.93;80.84
70051;SHT30;57391;51.306;22.680;2023-08-08T01:20:47;14.93;80.90
70051;SHT30;57391;51.306;22.680;2023-08-08T01:23:19;14.92;80.88
70051;SHT30;57391;51.306;22.680;2023-08-08T01:26:02;14.91;80.94
70051;SHT30;57391;51.306;22.680;2023-08-08T01:28:33;14.90;80.89
70051;SHT30;57391;51.306;22.680;2023-08-08T01:31:01;14.89;80.91
70051;SHT30;57391;51.306;22.680;2023-08-08T01:33:28;14.89;81.00
70051;SHT30;57391;51.306;22.680;2023-08-08T01:36:04;14.89;80.97
70051;SHT30;57391;51.306;22.680;2023-08-08T01:38:49;14.88;80.97
70051;SHT30;57391;51.306;22.680;2023-08-08T01:41:21;14.88;80.94
70051;SHT30;57391;51.306;22.680;2023-08-08T01:43:49;14.88;81.01
70051;SHT30;57391;51.306;22.680;2023-08-08T01:46:17;14.89;80.91
70051;SHT30;57391;51.306;22.680;2023-08-08T01:48:45;14.88;81.00
70051;SHT30;57391;51.306;22.680;2023-08-08T01:51:13;14.86;80.92
70051;SHT30;57391;51.306;22.680;2023-08-08T01:53:40;14.86;80.92
70051;SHT30;57391;51.306;22.680;2023-08-08T01:56:08;14.85;80.95
70051;SHT30;57391;51.306;22.680;2023-08-08T01:58:36;14.85;81.02
70051;SHT30;57391;51.306;22.680;2023-08-08T02:01:03;14.86;81.02
70051;SHT30;57391;51.306;22.680;2023-08-08T02:03:30;14.88;81.06
70051;SHT30;57391;51.306;22.680;2023-08-08T02:05:57;14.89;81.10
70051;SHT30;57391;51.306;22.680;2023-08-08T02:08:23;14.91;81.09
70051;SHT30;57391;51.306;22.680;2023-08-08T02:10:50;14.92;81.09
70051;SHT30;57391;51.306;22.680;2023-08-08T02:13:17;14.93;81.06
70051;SHT30;57391;51.306;22.680;2023-08-08T02:15:44;14.97;81.03
70051;SHT30;57391;51.306;22.680;2023-08-08T02:18:11;14.99;80.90
70051;SHT30;57391;51.306;22.680;2023-08-08T02:20:38;14.99;80.84
70051;SHT30;57391;51.306;22.680;2023-08-08T02:23:05;15.02;80.78
70051;SHT30;57391;51.306;22.680;2023-08-08T02:25:32;15.03;80.72
70051;SHT30;57391;51.306;22.680;2023-08-08T02:27:59;15.04;80.71
70051;SHT30;57391;51.306;22.680;2023-08-08T02:30:26;15.06;80.72
70051;SHT30;57391;51.306;22.680;2023-08-08T02:32:52;15.09;80.70
70051;SHT30;57391;51.306;22.680;2023-08-08T02:35:19;15.10;80.59
70051;SHT30;57391;51.306;22.680;2023-08-08T02:37:46;15.12;80.52
70051;SHT30;57391;51.306;22.680;2023-08-08T02:40:13;15.14;80.51
70051;SHT30;57391;51.306;22.680;2023-08-08T02:42:40;15.15;80.50
70051;SHT30;57391;51.306;22.680;2023-08-08T02:45:07;15.16;80.50
70051;SHT30;57391;51.306;22.680;2023-08-08T02:47:34;15.18;80.41
70051;SHT30;57391;51.306;22.680;2023-08-08T02:50:01;15.18;80.34
70051;SHT30;57391;51.306;22.680;2023-08-08T02:52:28;15.19;80.23
70051;SHT30;57391;51.306;22.680;2023-08-08T02:54:55;15.19;80.15
70051;SHT30;57391;51.306;22.680;2023-08-08T02:57:22;15.19;80.09
70051;SHT30;57391;51.306;22.680;2023-08-08T02:59:49;15.21;80.02
70051;SHT30;57391;51.306;22.680;2023-08-08T03:02:16;15.20;79.98
70051;SHT30;57391;51.306;22.680;2023-08-08T03:04:43;15.19;79.91
70051;SHT30;57391;51.306;22.680;2023-08-08T03:07:09;15.17;79.89
70051;SHT30;57391;51.306;22.680;2023-08-08T03:09:37;15.15;79.89
70051;SHT30;57391;51.306;22.680;2023-08-08T03:12:04;15.14;79.85
70051;SHT30;57391;51.306;22.680;2023-08-08T03:14:32;15.14;79.80
70051;SHT30;57391;51.306;22.680;2023-08-08T03:17:00;15.13;79.75
70051;SHT30;57391;51.306;22.680;2023-08-08T03:19:27;15.13;79.70
70051;SHT30;57391;51.306;22.680;2023-08-08T03:21:54;15.12;79.59
70051;SHT30;57391;51.306;22.680;2023-08-08T03:24:21;15.13;79.51
70051;SHT30;57391;51.306;22.680;2023-08-08T03:26:48;15.14;79.40
70051;SHT30;57391;51.306;22.680;2023-08-08T03:29:15;15.14;79.34
70051;SHT30;57391;51.306;22.680;2023-08-08T03:31:45;15.15;79.29
70051;SHT30;57391;51.306;22.680;2023-08-08T03:34:13;15.17;79.21
70051;SHT30;57391;51.306;22.680;2023-08-08T03:36:40;15.19;79.09
70051;SHT30;57391;51.306;22.680;2023-08-08T03:39:08;15.22;79.01
70051;SHT30;57391;51.306;22.680;2023-08-08T03:41:35;15.24;78.91
70051;SHT30;57391;51.306;22.680;2023-08-08T03:44:03;15.25;78.67
70051;SHT30;57391;51.306;22.680;2023-08-08T03:46:30;15.27;78.61
70051;SHT30;57391;51.306;22.680;2023-08-08T03:48:57;15.29;78.54
70051;SHT30;57391;51.306;22.680;2023-08-08T03:51:24;15.32;78.52
70051;SHT30;57391;51.306;22.680;2023-08-08T03:53:51;15.35;78.34
70051;SHT30;57391;51.306;22.680;2023-08-08T03:56:19;15.65;77.96
70051;SHT30;57391;51.306;22.680;2023-08-08T03:58:46;16.35;76.52
70051;SHT30;57391;51.306;22.680;2023-08-08T04:01:12;16.82;74.86
70051;SHT30;57391;51.306;22.680;2023-08-08T04:03:40;16.93;74.30
70051;SHT30;57391;51.306;22.680;2023-08-08T04:06:07;16.86;73.91
70051;SHT30;57391;51.306;22.680;2023-08-08T04:08:33;16.74;73.87
70051;SHT30;57391;51.306;22.680;2023-08-08T04:11:00;16.61;73.75
70051;SHT30;57391;51.306;22.680;2023-08-08T04:13:27;16.54;73.83
70051;SHT30;57391;51.306;22.680;2023-08-08T04:15:54;16.48;73.67
70051;SHT30;57391;51.306;22.680;2023-08-08T04:18:21;16.47;73.65
70051;SHT30;57391;51.306;22.680;2023-08-08T04:20:47;16.45;73.63
70051;SHT30;57391;51.306;22.680;2023-08-08T04:23:14;16.65;73.31
70051;SHT30;57391;51.306;22.680;2023-08-08T04:25:41;17.78;71.12
70051;SHT30;57391;51.306;22.680;2023-08-08T04:28:08;19.14;67.88
70051;SHT30;57391;51.306;22.680;2023-08-08T04:30:35;20.51;64.87
70051;SHT30;57391;51.306;22.680;2023-08-08T04:33:02;21.63;60.25
70051;SHT30;57391;51.306;22.680;2023-08-08T04:35:29;22.31;57.53
70051;SHT30;57391;51.306;22.680;2023-08-08T04:37:55;22.84;56.00
70051;SHT30;57391;51.306;22.680;2023-08-08T04:40:22;23.70;54.65
70051;SHT30;57391;51.306;22.680;2023-08-08T04:42:51;24.40;51.11
70051;SHT30;57391;51.306;22.680;2023-08-08T04:45:18;25.01;50.06
70051;SHT30;57391;51.306;22.680;2023-08-08T04:47:47;25.77;49.76
70051;SHT30;57391;51.306;22.680;2023-08-08T04:50:14;26.62;47.47
70051;SHT30;57391;51.306;22.680;2023-08-08T04:52:41;27.21;46.04
70051;SHT30;57391;51.306;22.680;2023-08-08T04:55:08;27.84;44.32
70051;SHT30;57391;51.306;22.680;2023-08-08T04:57:35;28.23;42.47
70051;SHT30;57391;51.306;22.680;2023-08-08T05:00:02;28.43;41.06
70051;SHT30;57391;51.306;22.680;2023-08-08T05:02:32;28.53;40.78
70051;SHT30;57391;51.306;22.680;2023-08-08T05:04:58;28.57;40.41
70051;SHT30;57391;51.306;22.680;2023-08-08T05:07:27;28.02;40.08
70051;SHT30;57391;51.306;22.680;2023-08-08T05:09:54;26.61;42.30
70051;SHT30;57391;51.306;22.680;2023-08-08T05:12:21;25.33;44.71
70051;SHT30;57391;51.306;22.680;2023-08-08T05:14:48;24.33;46.25
70051;SHT30;57391;51.306;22.680;2023-08-08T05:17:14;23.65;48.08
70051;SHT30;57391;51.306;22.680;2023-08-08T05:19:41;23.24;48.16
70051;SHT30;57391;51.306;22.680;2023-08-08T05:22:08;22.83;48.91
70051;SHT30;57391;51.306;22.680;2023-08-08T05:24:35;22.25;50.25
70051;SHT30;57391;51.306;22.680;2023-08-08T05:27:02;21.64;51.64
70051;SHT30;57391;51.306;22.680;2023-08-08T05:29:30;21.12;52.97
70051;SHT30;57391;51.306;22.680;2023-08-08T05:31:56;20.66;53.63
70051;SHT30;57391;51.306;22.680;2023-08-08T05:34:24;20.15;54.45
70051;SHT30;57391;51.306;22.680;2023-08-08T05:36:51;19.72;55.63
70051;SHT30;57391;51.306;22.680;2023-08-08T05:39:17;19.33;57.00
70051;SHT30;57391;51.306;22.680;2023-08-08T05:41:44;19.15;57.86
70051;SHT30;57391;51.306;22.680;2023-08-08T05:44:11;19.05;58.70
70051;SHT30;57391;51.306;22.680;2023-08-08T05:46:38;18.90;58.57
70051;SHT30;57391;51.306;22.680;2023-08-08T05:49:04;18.84;59.40
70051;SHT30;57391;51.306;22.680;2023-08-08T05:51:32;18.81;59.85
70051;SHT30;57391;51.306;22.680;2023-08-08T05:53:59;18.73;59.80
70051;SHT30;57391;51.306;22.680;2023-08-08T05:56:36;18.64;59.98
70051;SHT30;57391;51.306;22.680;2023-08-08T05:59:03;18.57;60.44
70051;SHT30;57391;51.306;22.680;2023-08-08T06:01:30;18.51;60.76
70051;SHT30;57391;51.306;22.680;2023-08-08T06:03:58;18.43;60.24
70051;SHT30;57391;51.306;22.680;2023-08-08T06:06:26;18.31;60.80
70051;SHT30;57391;51.306;22.680;2023-08-08T06:08:53;18.21;61.39
70051;SHT30;57391;51.306;22.680;2023-08-08T06:11:20;18.06;60.99
70051;SHT30;57391;51.306;22.680;2023-08-08T06:13:48;17.92;61.65
70051;SHT30;57391;51.306;22.680;2023-08-08T06:16:15;17.83;62.13
70051;SHT30;57391;51.306;22.680;2023-08-08T06:18:42;17.73;62.10
70051;SHT30;57391;51.306;22.680;2023-08-08T06:21:09;17.61;62.06
70051;SHT30;57391;51.306;22.680;2023-08-08T06:23:36;17.53;63.07
70051;SHT30;57391;51.306;22.680;2023-08-08T06:26:03;17.56;62.96
70051;SHT30;57391;51.306;22.680;2023-08-08T06:28:31;17.57;63.10
70051;SHT30;57391;51.306;22.680;2023-08-08T06:30:58;17.64;63.09
70051;SHT30;57391;51.306;22.680;2023-08-08T06:33:25;17.69;63.01
70051;SHT30;57391;51.306;22.680;2023-08-08T06:35:52;17.82;62.74
70051;SHT30;57391;51.306;22.680;2023-08-08T06:38:19;18.01;62.36
70051;SHT30;57391;51.306;22.680;2023-08-08T06:40:45;18.26;62.83
70051;SHT30;57391;51.306;22.680;2023-08-08T06:43:12;18.54;61.91
70051;SHT30;57391;51.306;22.680;2023-08-08T06:45:40;18.65;60.67
70051;SHT30;57391;51.306;22.680;2023-08-08T06:48:07;18.68;60.13
70051;SHT30;57391;51.306;22.680;2023-08-08T06:50:34;18.69;60.34
70051;SHT30;57391;51.306;22.680;2023-08-08T06:53:01;18.70;59.58
70051;SHT30;57391;51.306;22.680;2023-08-08T06:55:30;18.68;59.24
70051;SHT30;57391;51.306;22.680;2023-08-08T06:57:56;18.72;59.64
70051;SHT30;57391;51.306;22.680;2023-08-08T07:00:23;18.80;59.72
70051;SHT30;57391;51.306;22.680;2023-08-08T07:02:50;18.87;59.13
70051;SHT30;57391;51.306;22.680;2023-08-08T07:05:17;18.95;59.22
70051;SHT30;57391;51.306;22.680;2023-08-08T07:07:44;18.93;58.25
70051;SHT30;57391;51.306;22.680;2023-08-08T07:10:11;19.09;59.02
70051;SHT30;57391;51.306;22.680;2023-08-08T07:12:38;19.20;58.45
70051;SHT30;57391;51.306;22.680;2023-08-08T07:15:06;19.25;58.21
70051;SHT30;57391;51.306;22.680;2023-08-08T07:17:34;19.44;58.54
70051;SHT30;57391;51.306;22.680;2023-08-08T07:20:01;19.71;57.94
70051;SHT30;57391;51.306;22.680;2023-08-08T07:22:28;19.92;57.04
70051;SHT30;57391;51.306;22.680;2023-08-08T07:24:55;19.97;55.83
70051;SHT30;57391;51.306;22.680;2023-08-08T07:27:22;20.02;56.18
70051;SHT30;57391;51.306;22.680;2023-08-08T07:29:48;20.22;55.90
70051;SHT30;57391;51.306;22.680;2023-08-08T07:32:15;20.32;55.10
70051;SHT30;57391;51.306;22.680;2023-08-08T07:34:42;20.44;54.60
70051;SHT30;57391;51.306;22.680;2023-08-08T07:37:09;20.55;54.39
70051;SHT30;57391;51.306;22.680;2023-08-08T07:39:37;20.66;54.15
70051;SHT30;57391;51.306;22.680;2023-08-08T07:42:04;20.66;52.94
70051;SHT30;57391;51.306;22.680;2023-08-08T07:44:31;20.64;52.82
70051;SHT30;57391;51.306;22.680;2023-08-08T07:47:00;20.58;53.46
70051;SHT30;57391;51.306;22.680;2023-08-08T07:49:27;20.50;53.59
70051;SHT30;57391;51.306;22.680;2023-08-08T07:51:54;20.39;53.50
70051;SHT30;57391;51.306;22.680;2023-08-08T07:54:21;20.17;53.38
70051;SHT30;57391;51.306;22.680;2023-08-08T07:56:48;20.09;54.97
70051;SHT30;57391;51.306;22.680;2023-08-08T07:59:15;20.29;55.21
70051;SHT30;57391;51.306;22.680;2023-08-08T08:01:42;20.59;53.90
70051;SHT30;57391;51.306;22.680;2023-08-08T08:04:09;20.92;53.06
70051;SHT30;57391;51.306;22.680;2023-08-08T08:06:36;21.28;51.85
70051;SHT30;57391;51.306;22.680;2023-08-08T08:09:03;21.47;51.48
70051;SHT30;57391;51.306;22.680;2023-08-08T08:11:29;21.72;51.24
70051;SHT30;57391;51.306;22.680;2023-08-08T08:13:56;22.03;51.34
70051;SHT30;57391;51.306;22.680;2023-08-08T08:16:23;22.14;49.65
70051;SHT30;57391;51.306;22.680;2023-08-08T08:18:50;22.31;49.50
70051;SHT30;57391;51.306;22.680;2023-08-08T08:21:17;22.24;49.24
70051;SHT30;57391;51.306;22.680;2023-08-08T08:23:44;22.14;48.64
70051;SHT30;57391;51.306;22.680;2023-08-08T08:26:12;21.84;47.95
70051;SHT30;57391;51.306;22.680;2023-08-08T08:28:39;21.42;48.28
70051;SHT30;57391;51.306;22.680;2023-08-08T08:31:06;21.01;48.94
70051;SHT30;57391;51.306;22.680;2023-08-08T08:33:34;20.80;49.88
70051;SHT30;57391;51.306;22.680;2023-08-08T08:36:01;20.94;51.58
70051;SHT30;57391;51.306;22.680;2023-08-08T08:38:28;21.00;51.81
70051;SHT30;57391;51.306;22.680;2023-08-08T08:40:55;20.90;51.01
70051;SHT30;57391;51.306;22.680;2023-08-08T08:43:23;20.84;50.78
70051;SHT30;57391;51.306;22.680;2023-08-08T08:45:52;20.90;50.59
70051;SHT30;57391;51.306;22.680;2023-08-08T08:48:22;21.11;50.50
70051;SHT30;57391;51.306;22.680;2023-08-08T08:50:49;21.31;49.30
70051;SHT30;57391;51.306;22.680;2023-08-08T08:53:17;21.47;48.61
70051;SHT30;57391;51.306;22.680;2023-08-08T08:55:44;21.68;49.76
70051;SHT30;57391;51.306;22.680;2023-08-08T08:58:14;21.76;47.67
70051;SHT30;57391;51.306;22.680;2023-08-08T09:00:44;21.70;47.39
70051;SHT30;57391;51.306;22.680;2023-08-08T09:03:14;21.57;47.36
70051;SHT30;57391;51.306;22.680;2023-08-08T09:05:42;21.52;47.78
70051;SHT30;57391;51.306;22.680;2023-08-08T09:08:14;21.56;47.13
70051;SHT30;57391;51.306;22.680;2023-08-08T09:10:41;21.67;46.75
70051;SHT30;57391;51.306;22.680;2023-08-08T09:13:08;21.87;47.50
70051;SHT30;57391;51.306;22.680;2023-08-08T09:15:35;22.11;46.27
70051;SHT30;57391;51.306;22.680;2023-08-08T09:18:02;22.26;44.27
70051;SHT30;57391;51.306;22.680;2023-08-08T09:20:29;22.11;43.86
70051;SHT30;57391;51.306;22.680;2023-08-08T09:22:57;21.80;44.43
70051;SHT30;57391;51.306;22.680;2023-08-08T09:25:24;21.46;44.71
70051;SHT30;57391;51.306;22.680;2023-08-08T09:27:52;21.23;46.54
70051;SHT30;57391;51.306;22.680;2023-08-08T09:30:19;21.08;47.60
70051;SHT30;57391;51.306;22.680;2023-08-08T09:32:47;20.99;47.05
70051;SHT30;57391;51.306;22.680;2023-08-08T09:35:14;20.88;46.32
70051;SHT30;57391;51.306;22.680;2023-08-08T09:37:42;20.93;46.86
70051;SHT30;57391;51.306;22.680;2023-08-08T09:40:09;21.11;46.98
70051;SHT30;57391;51.306;22.680;2023-08-08T09:42:37;21.27;46.01
70051;SHT30;57391;51.306;22.680;2023-08-08T09:45:08;21.45;46.11
70051;SHT30;57391;51.306;22.680;2023-08-08T09:47:37;21.71;45.56
70051;SHT30;57391;51.306;22.680;2023-08-08T09:50:04;21.83;43.71
70051;SHT30;57391;51.306;22.680;2023-08-08T09:52:34;21.72;43.84
70051;SHT30;57391;51.306;22.680;2023-08-08T09:55:05;21.62;44.19
70051;SHT30;57391;51.306;22.680;2023-08-08T09:57:32;21.71;43.98
70051;SHT30;57391;51.306;22.680;2023-08-08T09:59:59;21.68;43.38
70051;SHT30;57391;51.306;22.680;2023-08-08T10:02:33;21.72;43.72
70051;SHT30;57391;51.306;22.680;2023-08-08T10:05:02;21.64;44.09
70051;SHT30;57391;51.306;22.680;2023-08-08T10:07:31;21.56;44.22
70051;SHT30;57391;51.306;22.680;2023-08-08T10:09:57;21.39;44.06
70051;SHT30;57391;51.306;22.680;2023-08-08T10:12:25;21.20;43.92
70051;SHT30;57391;51.306;22.680;2023-08-08T10:14:53;21.05;44.86
70051;SHT30;57391;51.306;22.680;2023-08-08T10:17:21;21.10;45.93
70051;SHT30;57391;51.306;22.680;2023-08-08T10:19:52;21.09;45.21
70051;SHT30;57391;51.306;22.680;2023-08-08T10:22:21;21.05;45.37
70051;SHT30;57391;51.306;22.680;2023-08-08T10:24:51;21.22;46.20
70051;SHT30;57391;51.306;22.680;2023-08-08T10:27:32;21.31;44.61
70051;SHT30;57391;51.306;22.680;2023-08-08T10:30:11;21.25;43.96
70051;SHT30;57391;51.306;22.680;2023-08-08T10:32:40;21.20;44.31
70051;SHT30;57391;51.306;22.680;2023-08-08T10:35:09;21.21;44.79
70051;SHT30;57391;51.306;22.680;2023-08-08T10:37:38;21.20;44.41
70051;SHT30;57391;51.306;22.680;2023-08-08T10:40:06;21.17;44.78
70051;SHT30;57391;51.306;22.680;2023-08-08T10:42:42;21.11;44.26
70051;SHT30;57391;51.306;22.680;2023-08-08T10:45:13;20.98;43.59
70051;SHT30;57391;51.306;22.680;2023-08-08T10:47:43;20.93;44.21
70051;SHT30;57391;51.306;22.680;2023-08-08T10:50:12;20.96;43.97
70051;SHT30;57391;51.306;22.680;2023-08-08T10:52:52;21.14;45.30
70051;SHT30;57391;51.306;22.680;2023-08-08T10:55:22;21.43;45.16
70051;SHT30;57391;51.306;22.680;2023-08-08T10:58:05;21.70;44.14
70051;SHT30;57391;51.306;22.680;2023-08-08T11:00:36;21.85;43.75
70051;SHT30;57391;51.306;22.680;2023-08-08T11:03:07;21.86;43.21
70051;SHT30;57391;51.306;22.680;2023-08-08T11:05:36;21.87;42.96
70051;SHT30;57391;51.306;22.680;2023-08-08T11:08:05;21.91;42.38
70051;SHT30;57391;51.306;22.680;2023-08-08T11:10:36;22.05;41.91
70051;SHT30;57391;51.306;22.680;2023-08-08T11:13:06;22.16;41.88
70051;SHT30;57391;51.306;22.680;2023-08-08T11:15:35;22.14;40.63
70051;SHT30;57391;51.306;22.680;2023-08-08T11:18:03;22.18;41.01
70051;SHT30;57391;51.306;22.680;2023-08-08T11:20:31;22.28;40.11
70051;SHT30;57391;51.306;22.680;2023-08-08T11:23:01;22.25;40.43
70051;SHT30;57391;51.306;22.680;2023-08-08T11:25:29;22.20;41.77
70051;SHT30;57391;51.306;22.680;2023-08-08T11:27:57;22.18;41.71
70051;SHT30;57391;51.306;22.680;2023-08-08T11:30:27;22.27;41.87
70051;SHT30;57391;51.306;22.680;2023-08-08T11:33:03;22.33;40.51
70051;SHT30;57391;51.306;22.680;2023-08-08T11:35:31;22.46;41.75
70051;SHT30;57391;51.306;22.680;2023-08-08T11:37:58;22.60;40.56
70051;SHT30;57391;51.306;22.680;2023-08-08T11:40:27;22.61;40.51
70051;SHT30;57391;51.306;22.680;2023-08-08T11:42:56;22.59;40.53
70051;SHT30;57391;51.306;22.680;2023-08-08T11:45:24;22.66;40.17
70051;SHT30;57391;51.306;22.680;2023-08-08T11:47:52;22.76;40.16
70051;SHT30;57391;51.306;22.680;2023-08-08T11:50:22;22.77;38.33
70051;SHT30;57391;51.306;22.680;2023-08-08T11:52:52;22.73;37.74
70051;SHT30;57391;51.306;22.680;2023-08-08T11:55:27;22.79;37.88
70051;SHT30;57391;51.306;22.680;2023-08-08T11:57:55;22.81;37.36
70051;SHT30;57391;51.306;22.680;2023-08-08T12:00:27;22.73;37.21
70051;SHT30;57391;51.306;22.680;2023-08-08T12:03:00;22.69;38.93
70051;SHT30;57391;51.306;22.680;2023-08-08T12:05:28;22.65;38.89
70051;SHT30;57391;51.306;22.680;2023-08-08T12:07:56;22.63;39.49
70051;SHT30;57391;51.306;22.680;2023-08-08T12:10:25;22.68;40.79
70051;SHT30;57391;51.306;22.680;2023-08-08T12:12:52;22.65;41.21
70051;SHT30;57391;51.306;22.680;2023-08-08T12:15:23;22.62;41.23
70051;SHT30;57391;51.306;22.680;2023-08-08T12:17:54;22.59;40.14
70051;SHT30;57391;51.306;22.680;2023-08-08T12:20:21;22.56;40.75
70051;SHT30;57391;51.306;22.680;2023-08-08T12:22:48;22.56;39.68
70051;SHT30;57391;51.306;22.680;2023-08-08T12:25:15;22.63;39.46
70051;SHT30;57391;51.306;22.680;2023-08-08T12:27:42;22.72;38.72
70051;SHT30;57391;51.306;22.680;2023-08-08T12:30:09;22.84;39.47
70051;SHT30;57391;51.306;22.680;2023-08-08T12:32:35;22.94;39.28
70051;SHT30;57391;51.306;22.680;2023-08-08T12:35:02;22.94;39.18
70051;SHT30;57391;51.306;22.680;2023-08-08T12:37:30;22.81;39.00
70051;SHT30;57391;51.306;22.680;2023-08-08T12:39:57;22.75;38.76
70051;SHT30;57391;51.306;22.680;2023-08-08T12:42:24;22.72;38.30
70051;SHT30;57391;51.306;22.680;2023-08-08T12:44:53;22.75;38.98
70051;SHT30;57391;51.306;22.680;2023-08-08T12:47:20;22.79;38.52
70051;SHT30;57391;51.306;22.680;2023-08-08T12:49:47;22.81;37.87
70051;SHT30;57391;51.306;22.680;2023-08-08T12:52:14;22.79;37.81
70051;SHT30;57391;51.306;22.680;2023-08-08T12:54:42;22.80;38.21
70051;SHT30;57391;51.306;22.680;2023-08-08T12:57:09;22.85;37.75
70051;SHT30;57391;51.306;22.680;2023-08-08T12:59:36;22.92;38.98
70051;SHT30;57391;51.306;22.680;2023-08-08T13:02:03;22.96;38.34
70051;SHT30;57391;51.306;22.680;2023-08-08T13:04:30;22.91;37.39
70051;SHT30;57391;51.306;22.680;2023-08-08T13:06:57;22.76;37.42
70051;SHT30;57391;51.306;22.680;2023-08-08T13:09:24;22.68;38.49
70051;SHT30;57391;51.306;22.680;2023-08-08T13:11:51;22.62;37.78
70051;SHT30;57391;51.306;22.680;2023-08-08T13:14:18;22.63;38.95
70051;SHT30;57391;51.306;22.680;2023-08-08T13:16:45;22.75;39.02
70051;SHT30;57391;51.306;22.680;2023-08-08T13:19:12;22.92;39.09
70051;SHT30;57391;51.306;22.680;2023-08-08T13:21:39;23.02;37.88
70051;SHT30;57391;51.306;22.680;2023-08-08T13:24:06;23.09;38.21
70051;SHT30;57391;51.306;22.680;2023-08-08T13:26:35;23.12;37.83
70051;SHT30;57391;51.306;22.680;2023-08-08T13:29:02;23.16;37.93
70051;SHT30;57391;51.306;22.680;2023-08-08T13:31:29;23.17;38.35
70051;SHT30;57391;51.306;22.680;2023-08-08T13:33:57;23.19;39.71
70051;SHT30;57391;51.306;22.680;2023-08-08T13:36:24;23.24;39.09
70051;SHT30;57391;51.306;22.680;2023-08-08T13:38:51;23.27;39.26
70051;SHT30;57391;51.306;22.680;2023-08-08T13:41:18;23.36;39.17
70051;SHT30;57391;51.306;22.680;2023-08-08T13:43:45;23.45;38.49
70051;SHT30;57391;51.306;22.680;2023-08-08T13:46:11;23.47;39.18
70051;SHT30;57391;51.306;22.680;2023-08-08T13:48:38;23.40;38.98
70051;SHT30;57391;51.306;22.680;2023-08-08T13:51:05;23.37;37.71
70051;SHT30;57391;51.306;22.680;2023-08-08T13:53:32;23.30;38.03
70051;SHT30;57391;51.306;22.680;2023-08-08T13:55:59;23.16;37.47
70051;SHT30;57391;51.306;22.680;2023-08-08T13:58:27;22.97;37.07
70051;SHT30;57391;51.306;22.680;2023-08-08T14:00:54;22.84;37.26
70051;SHT30;57391;51.306;22.680;2023-08-08T14:03:23;22.85;38.48
70051;SHT30;57391;51.306;22.680;2023-08-08T14:05:51;22.87;37.41
70051;SHT30;57391;51.306;22.680;2023-08-08T14:08:18;22.92;37.57
70051;SHT30;57391;51.306;22.680;2023-08-08T14:10:46;22.95;37.59
70051;SHT30;57391;51.306;22.680;2023-08-08T14:13:13;23.00;38.62
70051;SHT30;57391;51.306;22.680;2023-08-08T14:15:40;23.04;37.91
70051;SHT30;57391;51.306;22.680;2023-08-08T14:18:08;23.07;37.16
70051;SHT30;57391;51.306;22.680;2023-08-08T14:20:35;23.10;37.97
70051;SHT30;57391;51.306;22.680;2023-08-08T14:23:01;23.16;38.38
70051;SHT30;57391;51.306;22.680;2023-08-08T14:25:29;23.27;37.84
70051;SHT30;57391;51.306;22.680;2023-08-08T14:27:56;23.25;36.18
70051;SHT30;57391;51.306;22.680;2023-08-08T14:30:27;23.22;37.02
70051;SHT30;57391;51.306;22.680;2023-08-08T14:32:54;23.17;36.37
70051;SHT30;57391;51.306;22.680;2023-08-08T14:35:22;23.11;36.60
70051;SHT30;57391;51.306;22.680;2023-08-08T14:37:49;23.04;37.35
70051;SHT30;57391;51.306;22.680;2023-08-08T14:40:16;22.97;37.48
70051;SHT30;57391;51.306;22.680;2023-08-08T14:42:43;22.86;37.49
70051;SHT30;57391;51.306;22.680;2023-08-08T14:45:10;22.70;38.00
70051;SHT30;57391;51.306;22.680;2023-08-08T14:47:37;22.57;38.99
70051;SHT30;57391;51.306;22.680;2023-08-08T14:50:05;22.46;39.50
70051;SHT30;57391;51.306;22.680;2023-08-08T14:52:32;22.34;39.20
70051;SHT30;57391;51.306;22.680;2023-08-08T14:55:00;22.23;39.35
70051;SHT30;57391;51.306;22.680;2023-08-08T14:57:27;22.17;40.11
70051;SHT30;57391;51.306;22.680;2023-08-08T14:59:54;22.15;39.49
70051;SHT30;57391;51.306;22.680;2023-08-08T15:02:21;22.07;39.27
70051;SHT30;57391;51.306;22.680;2023-08-08T15:04:48;21.98;39.93
70051;SHT30;57391;51.306;22.680;2023-08-08T15:07:15;21.79;41.35
70051;SHT30;57391;51.306;22.680;2023-08-08T15:09:42;21.32;44.25
70051;SHT30;57391;51.306;22.680;2023-08-08T15:12:08;20.87;46.55
70051;SHT30;57391;51.306;22.680;2023-08-08T15:14:35;20.40;49.55
70051;SHT30;57391;51.306;22.680;2023-08-08T15:17:02;19.97;51.21
70051;SHT30;57391;51.306;22.680;2023-08-08T15:19:29;19.65;52.42